sensor_id;sensor_type;location;lat;lon;timestamp;P1;durP1;ratioP1;P2;durP2;ratioP2
44774;SDS011;31340;51.402;0.016;2022-07-26T00:01:56;3.58;;;1.65;;
44774;SDS011;31340;51.402;0.016;2022-07-26T00:04:24;6.05;;;1.50;;
44774;SDS011;31340;51.402;0.016;2022-07-26T00:06:52;4.35;;;1.25;;
44774;SDS011;31340;51.402;0.016;2022-07-26T00:09:20;3.85;;;1.42;;
44774;SDS011;31340;51.402;0.016;2022-07-26T00:11:48;5.18;;;1.45;;
44774;SDS011;31340;51.402;0.016;2022-07-26T00:14:16;3.28;;;1.20;;
44774;SDS011;31340;51.402;0.016;2022-07-26T00:16:43;6.63;;;1.67;;
44774;SDS011;31340;51.402;0.016;2022-07-26T00:19:11;5.80;;;1.15;;
44774;SDS011;31340;51.402;0.016;2022-07-26T00:21:39;5.53;;;1.45;;
44774;SDS011;31340;51.402;0.016;2022-07-26T00:24:07;6.53;;;1.50;;
44774;SDS011;31340;51.402;0.016;2022-07-26T00:26:34;6.10;;;1.75;;
44774;SDS011;31340;51.402;0.016;2022-07-26T00:29:02;5.93;;;1.50;;
44774;SDS011;31340;51.402;0.016;2022-07-26T00:31:32;4.40;;;1.57;;
44774;SDS011;31340;51.402;0.016;2022-07-26T00:33:59;5.10;;;1.60;;
44774;SDS011;31340;51.402;0.016;2022-07-26T00:36:27;4.47;;;1.73;;
44774;SDS011;31340;51.402;0.016;2022-07-26T00:38:55;6.30;;;1.75;;
44774;SDS011;31340;51.402;0.016;2022-07-26T00:41:23;5.00;;;1.42;;
44774;SDS011;31340;51.402;0.016;2022-07-26T00:43:54;7.80;;;1.60;;
44774;SDS011;31340;51.402;0.016;2022-07-26T00:46:23;3.13;;;1.23;;
44774;SDS011;31340;51.402;0.016;2022-07-26T00:48:51;3.53;;;1.30;;
44774;SDS011;31340;51.402;0.016;2022-07-26T00:51:19;6.20;;;1.70;;
44774;SDS011;31340;51.402;0.016;2022-07-26T00:53:47;7.53;;;1.73;;
44774;SDS011;31340;51.402;0.016;2022-07-26T00:56:15;3.10;;;1.30;;
44774;SDS011;31340;51.402;0.016;2022-07-26T00:58:44;7.22;;;1.33;;
44774;SDS011;31340;51.402;0.016;2022-07-26T01:01:11;6.50;;;1.35;;
44774;SDS011;31340;51.402;0.016;2022-07-26T01:03:39;8.40;;;1.70;;
44774;SDS011;31340;51.402;0.016;2022-07-26T01:06:07;8.20;;;2.03;;
44774;SDS011;31340;51.402;0.016;2022-07-26T01:08:35;4.20;;;1.40;;
44774;SDS011;31340;51.402;0.016;2022-07-26T01:11:02;5.88;;;1.60;;
44774;SDS011;31340;51.402;0.016;2022-07-26T01:13:30;6.07;;;1.40;;
44774;SDS011;31340;51.402;0.016;2022-07-26T01:16:02;5.30;;;2.03;;
44774;SDS011;31340;51.402;0.016;2022-07-26T01:18:29;5.68;;;1.50;;
44774;SDS011;31340;51.402;0.016;2022-07-26T01:20:57;6.03;;;1.83;;
44774;SDS011;31340;51.402;0.016;2022-07-26T01:23:41;6.85;;;2.08;;
44774;SDS011;31340;51.402;0.016;2022-07-26T01:26:09;7.72;;;1.80;;
44774;SDS011;31340;51.402;0.016;2022-07-26T01:28:38;6.68;;;1.75;;
44774;SDS011;31340;51.402;0.016;2022-07-26T01:31:06;7.18;;;1.92;;
44774;SDS011;31340;51.402;0.016;2022-07-26T01:33:34;8.98;;;2.10;;
44774;SDS011;31340;51.402;0.016;2022-07-26T01:36:02;5.45;;;1.85;;
44774;SDS011;31340;51.402;0.016;2022-07-26T01:38:30;10.85;;;2.17;;
44774;SDS011;31340;51.402;0.016;2022-07-26T01:40:57;8.00;;;2.28;;
44774;SDS011;31340;51.402;0.016;2022-07-26T01:43:25;7.40;;;1.85;;
44774;SDS011;31340;51.402;0.016;2022-07-26T01:45:53;7.60;;;1.83;;
44774;SDS011;31340;51.402;0.016;2022-07-26T01:48:21;7.05;;;1.88;;
44774;SDS011;31340;51.402;0.016;2022-07-26T01:50:49;5.30;;;2.10;;
44774;SDS011;31340;51.402;0.016;2022-07-26T01:53:17;9.73;;;2.10;;
44774;SDS011;31340;51.402;0.016;2022-07-26T01:55:44;7.22;;;1.80;;
44774;SDS011;31340;51.402;0.016;2022-07-26T01:58:12;9.20;;;2.15;;
44774;SDS011;31340;51.402;0.016;2022-07-26T02:00:39;6.60;;;2.00;;
44774;SDS011;31340;51.402;0.016;2022-07-26T02:03:07;5.55;;;1.85;;
44774;SDS011;31340;51.402;0.016;2022-07-26T02:05:35;11.30;;;2.08;;
44774;SDS011;31340;51.402;0.016;2022-07-26T02:08:02;6.75;;;1.90;;
44774;SDS011;31340;51.402;0.016;2022-07-26T02:10:30;11.77;;;2.05;;
44774;SDS011;31340;51.402;0.016;2022-07-26T02:13:17;6.25;;;1.92;;
44774;SDS011;31340;51.402;0.016;2022-07-26T02:15:44;7.78;;;1.75;;
44774;SDS011;31340;51.402;0.016;2022-07-26T02:18:12;5.20;;;1.73;;
44774;SDS011;31340;51.402;0.016;2022-07-26T02:20:39;5.07;;;1.60;;
44774;SDS011;31340;51.402;0.016;2022-07-26T02:23:07;5.72;;;2.03;;
44774;SDS011;31340;51.402;0.016;2022-07-26T02:25:34;7.40;;;2.10;;
44774;SDS011;31340;51.402;0.016;2022-07-26T02:28:02;7.97;;;2.38;;
44774;SDS011;31340;51.402;0.016;2022-07-26T02:30:30;9.63;;;2.15;;
44774;SDS011;31340;51.402;0.016;2022-07-26T02:32:59;11.43;;;1.92;;
44774;SDS011;31340;51.402;0.016;2022-07-26T02:35:27;6.07;;;2.30;;
44774;SDS011;31340;51.402;0.016;2022-07-26T02:37:54;7.93;;;2.58;;
44774;SDS011;31340;51.402;0.016;2022-07-26T02:40:26;7.45;;;2.40;;
44774;SDS011;31340;51.402;0.016;2022-07-26T02:42:54;7.20;;;2.00;;
44774;SDS011;31340;51.402;0.016;2022-07-26T02:45:21;7.50;;;1.95;;
44774;SDS011;31340;51.402;0.016;2022-07-26T02:47:50;11.98;;;2.53;;
44774;SDS011;31340;51.402;0.016;2022-07-26T02:50:19;6.13;;;2.00;;
44774;SDS011;31340;51.402;0.016;2022-07-26T02:52:48;5.55;;;2.53;;
44774;SDS011;31340;51.402;0.016;2022-07-26T02:55:18;6.72;;;2.60;;
44774;SDS011;31340;51.402;0.016;2022-07-26T02:57:47;5.38;;;2.50;;
44774;SDS011;31340;51.402;0.016;2022-07-26T03:00:16;9.30;;;2.53;;
44774;SDS011;31340;51.402;0.016;2022-07-26T03:02:46;7.90;;;2.22;;
44774;SDS011;31340;51.402;0.016;2022-07-26T03:05:15;9.50;;;2.38;;
44774;SDS011;31340;51.402;0.016;2022-07-26T03:07:44;6.85;;;2.30;;
44774;SDS011;31340;51.402;0.016;2022-07-26T03:10:12;5.97;;;2.42;;
44774;SDS011;31340;51.402;0.016;2022-07-26T03:12:39;6.07;;;2.45;;
44774;SDS011;31340;51.402;0.016;2022-07-26T03:15:08;9.85;;;2.58;;
44774;SDS011;31340;51.402;0.016;2022-07-26T03:17:36;5.65;;;2.20;;
44774;SDS011;31340;51.402;0.016;2022-07-26T03:20:04;8.00;;;3.08;;
44774;SDS011;31340;51.402;0.016;2022-07-26T03:22:32;6.07;;;2.30;;
44774;SDS011;31340;51.402;0.016;2022-07-26T03:25:00;5.78;;;2.17;;
44774;SDS011;31340;51.402;0.016;2022-07-26T03:27:28;6.18;;;2.25;;
44774;SDS011;31340;51.402;0.016;2022-07-26T03:29:56;8.65;;;2.25;;
44774;SDS011;31340;51.402;0.016;2022-07-26T03:32:23;8.07;;;2.45;;
44774;SDS011;31340;51.402;0.016;2022-07-26T03:34:51;7.03;;;2.13;;
44774;SDS011;31340;51.402;0.016;2022-07-26T03:37:18;6.53;;;2.63;;
44774;SDS011;31340;51.402;0.016;2022-07-26T03:39:46;5.22;;;2.15;;
44774;SDS011;31340;51.402;0.016;2022-07-26T03:42:15;5.93;;;2.40;;
44774;SDS011;31340;51.402;0.016;2022-07-26T03:44:43;7.75;;;2.60;;
44774;SDS011;31340;51.402;0.016;2022-07-26T03:47:10;5.53;;;2.42;;
44774;SDS011;31340;51.402;0.016;2022-07-26T03:49:38;8.05;;;2.38;;
44774;SDS011;31340;51.402;0.016;2022-07-26T03:52:05;11.73;;;3.63;;
44774;SDS011;31340;51.402;0.016;2022-07-26T03:54:33;6.53;;;2.50;;
44774;SDS011;31340;51.402;0.016;2022-07-26T03:57:00;6.90;;;2.30;;
44774;SDS011;31340;51.402;0.016;2022-07-26T03:59:28;4.25;;;2.03;;
44774;SDS011;31340;51.402;0.016;2022-07-26T04:01:55;6.03;;;2.50;;
44774;SDS011;31340;51.402;0.016;2022-07-26T04:04:23;8.10;;;2.70;;
44774;SDS011;31340;51.402;0.016;2022-07-26T04:06:52;7.07;;;2.60;;
44774;SDS011;31340;51.402;0.016;2022-07-26T04:09:22;7.57;;;2.90;;
44774;SDS011;31340;51.402;0.016;2022-07-26T04:11:49;7.93;;;2.58;;
44774;SDS011;31340;51.402;0.016;2022-07-26T04:14:17;4.75;;;2.17;;
44774;SDS011;31340;51.402;0.016;2022-07-26T04:16:44;6.45;;;3.05;;
44774;SDS011;31340;51.402;0.016;2022-07-26T04:19:12;7.30;;;3.08;;
44774;SDS011;31340;51.402;0.016;2022-07-26T04:21:40;8.57;;;2.90;;
44774;SDS011;31340;51.402;0.016;2022-07-26T04:24:07;8.23;;;2.92;;
44774;SDS011;31340;51.402;0.016;2022-07-26T04:26:36;6.90;;;3.33;;
44774;SDS011;31340;51.402;0.016;2022-07-26T04:29:03;7.97;;;3.05;;
44774;SDS011;31340;51.402;0.016;2022-07-26T04:31:33;5.82;;;2.65;;
44774;SDS011;31340;51.402;0.016;2022-07-26T04:34:03;7.72;;;2.83;;
44774;SDS011;31340;51.402;0.016;2022-07-26T04:36:31;7.70;;;3.30;;
44774;SDS011;31340;51.402;0.016;2022-07-26T04:38:59;6.03;;;2.65;;
44774;SDS011;31340;51.402;0.016;2022-07-26T04:41:26;7.00;;;2.78;;
44774;SDS011;31340;51.402;0.016;2022-07-26T04:43:54;8.73;;;3.40;;
44774;SDS011;31340;51.402;0.016;2022-07-26T04:46:22;8.63;;;2.53;;
44774;SDS011;31340;51.402;0.016;2022-07-26T04:48:51;7.38;;;2.85;;
44774;SDS011;31340;51.402;0.016;2022-07-26T04:51:18;8.25;;;2.90;;
44774;SDS011;31340;51.402;0.016;2022-07-26T04:53:46;10.70;;;2.80;;
44774;SDS011;31340;51.402;0.016;2022-07-26T04:56:14;7.35;;;2.35;;
44774;SDS011;31340;51.402;0.016;2022-07-26T04:58:42;6.20;;;2.63;;
44774;SDS011;31340;51.402;0.016;2022-07-26T05:01:09;10.57;;;2.33;;
44774;SDS011;31340;51.402;0.016;2022-07-26T05:03:37;5.55;;;2.28;;
44774;SDS011;31340;51.402;0.016;2022-07-26T05:06:05;6.25;;;2.88;;
44774;SDS011;31340;51.402;0.016;2022-07-26T05:08:33;6.82;;;2.45;;
44774;SDS011;31340;51.402;0.016;2022-07-26T05:11:00;4.53;;;2.13;;
44774;SDS011;31340;51.402;0.016;2022-07-26T05:13:29;4.60;;;2.22;;
44774;SDS011;31340;51.402;0.016;2022-07-26T05:15:57;8.85;;;2.25;;
44774;SDS011;31340;51.402;0.016;2022-07-26T05:18:27;6.68;;;2.30;;
44774;SDS011;31340;51.402;0.016;2022-07-26T05:21:07;6.05;;;2.25;;
44774;SDS011;31340;51.402;0.016;2022-07-26T05:23:34;12.80;;;2.85;;
44774;SDS011;31340;51.402;0.016;2022-07-26T05:26:02;5.80;;;2.40;;
44774;SDS011;31340;51.402;0.016;2022-07-26T05:28:29;5.90;;;1.92;;
44774;SDS011;31340;51.402;0.016;2022-07-26T05:30:57;5.03;;;2.15;;
44774;SDS011;31340;51.402;0.016;2022-07-26T05:33:28;4.75;;;1.67;;
44774;SDS011;31340;51.402;0.016;2022-07-26T05:35:55;5.63;;;1.75;;
44774;SDS011;31340;51.402;0.016;2022-07-26T05:38:23;6.00;;;1.85;;
44774;SDS011;31340;51.402;0.016;2022-07-26T05:40:51;4.47;;;2.03;;
44774;SDS011;31340;51.402;0.016;2022-07-26T05:43:19;5.25;;;1.75;;
44774;SDS011;31340;51.402;0.016;2022-07-26T05:45:46;7.38;;;2.60;;
44774;SDS011;31340;51.402;0.016;2022-07-26T05:48:14;6.10;;;2.20;;
44774;SDS011;31340;51.402;0.016;2022-07-26T05:50:41;10.25;;;2.60;;
44774;SDS011;31340;51.402;0.016;2022-07-26T05:53:09;9.02;;;2.33;;
44774;SDS011;31340;51.402;0.016;2022-07-26T05:55:36;14.40;;;3.05;;
44774;SDS011;31340;51.402;0.016;2022-07-26T05:58:04;7.10;;;2.58;;
44774;SDS011;31340;51.402;0.016;2022-07-26T06:00:31;7.05;;;2.80;;
44774;SDS011;31340;51.402;0.016;2022-07-26T06:02:59;5.97;;;2.28;;
44774;SDS011;31340;51.402;0.016;2022-07-26T06:05:50;8.88;;;2.63;;
44774;SDS011;31340;51.402;0.016;2022-07-26T06:08:20;6.72;;;2.70;;
44774;SDS011;31340;51.402;0.016;2022-07-26T06:10:48;8.75;;;2.92;;
44774;SDS011;31340;51.402;0.016;2022-07-26T06:13:16;6.90;;;2.60;;
44774;SDS011;31340;51.402;0.016;2022-07-26T06:15:44;11.10;;;3.13;;
44774;SDS011;31340;51.402;0.016;2022-07-26T06:18:12;6.50;;;2.60;;
44774;SDS011;31340;51.402;0.016;2022-07-26T06:20:40;8.57;;;2.83;;
44774;SDS011;31340;51.402;0.016;2022-07-26T06:23:09;6.35;;;2.63;;
44774;SDS011;31340;51.402;0.016;2022-07-26T06:25:38;10.18;;;3.03;;
44774;SDS011;31340;51.402;0.016;2022-07-26T06:28:07;12.63;;;4.10;;
44774;SDS011;31340;51.402;0.016;2022-07-26T06:30:36;11.95;;;4.50;;
44774;SDS011;31340;51.402;0.016;2022-07-26T06:33:05;12.43;;;4.45;;
44774;SDS011;31340;51.402;0.016;2022-07-26T06:35:36;9.27;;;3.92;;
44774;SDS011;31340;51.402;0.016;2022-07-26T06:38:05;17.42;;;4.88;;
44774;SDS011;31340;51.402;0.016;2022-07-26T06:40:33;10.88;;;4.60;;
44774;SDS011;31340;51.402;0.016;2022-07-26T06:43:02;8.52;;;4.13;;
44774;SDS011;31340;51.402;0.016;2022-07-26T06:45:30;8.57;;;3.70;;
44774;SDS011;31340;51.402;0.016;2022-07-26T06:47:59;9.35;;;3.90;;
44774;SDS011;31340;51.402;0.016;2022-07-26T06:50:27;6.28;;;3.83;;
44774;SDS011;31340;51.402;0.016;2022-07-26T06:52:55;8.77;;;4.65;;
44774;SDS011;31340;51.402;0.016;2022-07-26T06:55:22;6.78;;;3.78;;
44774;SDS011;31340;51.402;0.016;2022-07-26T06:57:50;13.38;;;4.63;;
44774;SDS011;31340;51.402;0.016;2022-07-26T07:00:17;10.13;;;4.13;;
44774;SDS011;31340;51.402;0.016;2022-07-26T07:02:45;8.63;;;4.20;;
44774;SDS011;31340;51.402;0.016;2022-07-26T07:05:13;9.73;;;3.78;;
44774;SDS011;31340;51.402;0.016;2022-07-26T07:07:40;10.63;;;4.05;;
44774;SDS011;31340;51.402;0.016;2022-07-26T07:10:08;13.85;;;4.63;;
44774;SDS011;31340;51.402;0.016;2022-07-26T07:12:38;8.85;;;3.72;;
44774;SDS011;31340;51.402;0.016;2022-07-26T07:15:07;11.85;;;4.43;;
44774;SDS011;31340;51.402;0.016;2022-07-26T07:17:35;10.60;;;3.55;;
44774;SDS011;31340;51.402;0.016;2022-07-26T07:20:03;9.65;;;4.00;;
44774;SDS011;31340;51.402;0.016;2022-07-26T07:22:31;13.32;;;3.58;;
44774;SDS011;31340;51.402;0.016;2022-07-26T07:24:59;8.65;;;3.80;;
44774;SDS011;31340;51.402;0.016;2022-07-26T07:27:28;8.32;;;3.33;;
44774;SDS011;31340;51.402;0.016;2022-07-26T07:29:56;9.40;;;3.60;;
44774;SDS011;31340;51.402;0.016;2022-07-26T07:32:23;10.05;;;3.72;;
44774;SDS011;31340;51.402;0.016;2022-07-26T07:34:52;13.32;;;4.00;;
44774;SDS011;31340;51.402;0.016;2022-07-26T07:37:19;8.10;;;3.60;;
44774;SDS011;31340;51.402;0.016;2022-07-26T07:39:47;12.27;;;4.15;;
44774;SDS011;31340;51.402;0.016;2022-07-26T07:42:17;12.98;;;4.20;;
44774;SDS011;31340;51.402;0.016;2022-07-26T07:44:45;10.45;;;4.15;;
44774;SDS011;31340;51.402;0.016;2022-07-26T07:47:13;8.48;;;4.03;;
44774;SDS011;31340;51.402;0.016;2022-07-26T07:49:41;11.25;;;4.32;;
44774;SDS011;31340;51.402;0.016;2022-07-26T07:52:09;14.43;;;4.30;;
44774;SDS011;31340;51.402;0.016;2022-07-26T07:54:36;11.68;;;4.18;;
44774;SDS011;31340;51.402;0.016;2022-07-26T07:57:04;10.35;;;3.55;;
44774;SDS011;31340;51.402;0.016;2022-07-26T07:59:31;9.15;;;3.75;;
44774;SDS011;31340;51.402;0.016;2022-07-26T08:02:04;7.78;;;3.60;;
44774;SDS011;31340;51.402;0.016;2022-07-26T08:04:32;11.25;;;4.03;;
44774;SDS011;31340;51.402;0.016;2022-07-26T08:07:00;7.90;;;4.25;;
44774;SDS011;31340;51.402;0.016;2022-07-26T08:09:28;10.38;;;4.95;;
44774;SDS011;31340;51.402;0.016;2022-07-26T08:11:59;14.68;;;5.45;;
44774;SDS011;31340;51.402;0.016;2022-07-26T08:14:28;8.15;;;5.20;;
44774;SDS011;31340;51.402;0.016;2022-07-26T08:16:55;12.50;;;5.30;;
44774;SDS011;31340;51.402;0.016;2022-07-26T08:19:23;10.32;;;5.50;;
44774;SDS011;31340;51.402;0.016;2022-07-26T08:21:55;8.65;;;5.50;;
44774;SDS011;31340;51.402;0.016;2022-07-26T08:24:23;11.27;;;5.10;;
44774;SDS011;31340;51.402;0.016;2022-07-26T08:26:50;9.63;;;5.53;;
44774;SDS011;31340;51.402;0.016;2022-07-26T08:29:19;11.48;;;5.93;;
44774;SDS011;31340;51.402;0.016;2022-07-26T08:31:47;10.35;;;5.70;;
44774;SDS011;31340;51.402;0.016;2022-07-26T08:34:16;9.23;;;5.38;;
44774;SDS011;31340;51.402;0.016;2022-07-26T08:36:44;10.30;;;5.28;;
44774;SDS011;31340;51.402;0.016;2022-07-26T08:39:32;10.25;;;5.18;;
44774;SDS011;31340;51.402;0.016;2022-07-26T08:42:00;8.45;;;4.88;;
44774;SDS011;31340;51.402;0.016;2022-07-26T08:44:29;7.80;;;4.85;;
44774;SDS011;31340;51.402;0.016;2022-07-26T08:46:57;9.52;;;4.32;;
44774;SDS011;31340;51.402;0.016;2022-07-26T08:49:24;8.38;;;4.40;;
44774;SDS011;31340;51.402;0.016;2022-07-26T08:51:52;8.48;;;4.93;;
44774;SDS011;31340;51.402;0.016;2022-07-26T08:54:20;7.88;;;4.43;;
44774;SDS011;31340;51.402;0.016;2022-07-26T08:56:49;11.40;;;4.43;;
44774;SDS011;31340;51.402;0.016;2022-07-26T08:59:18;5.32;;;3.95;;
44774;SDS011;31340;51.402;0.016;2022-07-26T09:04:30;6.93;;;4.25;;
44774;SDS011;31340;51.402;0.016;2022-07-26T09:07:14;5.15;;;3.58;;
44774;SDS011;31340;51.402;0.016;2022-07-26T09:09:57;5.30;;;3.72;;
44774;SDS011;31340;51.402;0.016;2022-07-26T09:12:27;6.40;;;4.10;;
44774;SDS011;31340;51.402;0.016;2022-07-26T09:14:56;7.10;;;3.95;;
44774;SDS011;31340;51.402;0.016;2022-07-26T09:17:24;5.97;;;3.33;;
44774;SDS011;31340;51.402;0.016;2022-07-26T09:20:11;8.80;;;4.20;;
44774;SDS011;31340;51.402;0.016;2022-07-26T09:25:30;14.30;;;4.43;;
44774;SDS011;31340;51.402;0.016;2022-07-26T09:28:00;14.10;;;4.75;;
44774;SDS011;31340;51.402;0.016;2022-07-26T09:30:29;7.75;;;4.35;;
44774;SDS011;31340;51.402;0.016;2022-07-26T09:32:59;9.98;;;4.38;;
44774;SDS011;31340;51.402;0.016;2022-07-26T09:38:17;9.65;;;4.68;;
44774;SDS011;31340;51.402;0.016;2022-07-26T09:40:45;11.25;;;5.30;;
44774;SDS011;31340;51.402;0.016;2022-07-26T09:43:17;8.50;;;5.20;;
44774;SDS011;31340;51.402;0.016;2022-07-26T09:46:01;11.30;;;5.75;;
44774;SDS011;31340;51.402;0.016;2022-07-26T09:48:33;8.60;;;5.60;;
44774;SDS011;31340;51.402;0.016;2022-07-26T09:57:01;13.82;;;4.82;;
44774;SDS011;31340;51.402;0.016;2022-07-26T09:59:30;9.52;;;5.18;;
44774;SDS011;31340;51.402;0.016;2022-07-26T10:01:58;8.75;;;5.20;;
44774;SDS011;31340;51.402;0.016;2022-07-26T10:04:26;8.75;;;5.15;;
44774;SDS011;31340;51.402;0.016;2022-07-26T10:06:54;14.13;;;5.25;;
44774;SDS011;31340;51.402;0.016;2022-07-26T10:09:24;12.55;;;5.68;;
44774;SDS011;31340;51.402;0.016;2022-07-26T10:12:04;9.48;;;4.32;;
44774;SDS011;31340;51.402;0.016;2022-07-26T10:14:46;9.98;;;5.07;;
44774;SDS011;31340;51.402;0.016;2022-07-26T10:17:37;7.53;;;4.70;;
44774;SDS011;31340;51.402;0.016;2022-07-26T10:20:07;12.90;;;4.65;;
44774;SDS011;31340;51.402;0.016;2022-07-26T10:22:55;8.93;;;5.03;;
44774;SDS011;31340;51.402;0.016;2022-07-26T10:27:51;8.75;;;4.85;;
44774;SDS011;31340;51.402;0.016;2022-07-26T10:30:24;8.98;;;4.75;;
44774;SDS011;31340;51.402;0.016;2022-07-26T10:33:01;11.82;;;4.88;;
44774;SDS011;31340;51.402;0.016;2022-07-26T10:43:25;10.73;;;4.20;;
44774;SDS011;31340;51.402;0.016;2022-07-26T10:48:54;11.80;;;4.30;;
44774;SDS011;31340;51.402;0.016;2022-07-26T10:51:23;7.32;;;3.97;;
44774;SDS011;31340;51.402;0.016;2022-07-26T10:54:02;7.20;;;3.97;;
44774;SDS011;31340;51.402;0.016;2022-07-26T10:56:31;9.07;;;3.45;;
44774;SDS011;31340;51.402;0.016;2022-07-26T10:59:00;8.40;;;3.42;;
44774;SDS011;31340;51.402;0.016;2022-07-26T11:01:35;6.95;;;3.20;;
44774;SDS011;31340;51.402;0.016;2022-07-26T11:04:05;6.50;;;3.60;;
44774;SDS011;31340;51.402;0.016;2022-07-26T11:06:53;7.78;;;3.28;;
44774;SDS011;31340;51.402;0.016;2022-07-26T11:09:32;7.18;;;3.58;;
44774;SDS011;31340;51.402;0.016;2022-07-26T11:14:47;7.30;;;3.33;;
44774;SDS011;31340;51.402;0.016;2022-07-26T11:17:30;8.15;;;3.25;;
44774;SDS011;31340;51.402;0.016;2022-07-26T11:19:58;6.55;;;3.63;;
44774;SDS011;31340;51.402;0.016;2022-07-26T11:22:35;6.65;;;3.45;;
44774;SDS011;31340;51.402;0.016;2022-07-26T11:25:02;7.72;;;3.60;;
44774;SDS011;31340;51.402;0.016;2022-07-26T11:27:30;7.38;;;3.47;;
44774;SDS011;31340;51.402;0.016;2022-07-26T11:30:04;6.65;;;3.80;;
44774;SDS011;31340;51.402;0.016;2022-07-26T11:32:32;7.50;;;3.50;;
44774;SDS011;31340;51.402;0.016;2022-07-26T11:37:30;9.10;;;3.85;;
44774;SDS011;31340;51.402;0.016;2022-07-26T11:39:58;11.82;;;3.90;;
44774;SDS011;31340;51.402;0.016;2022-07-26T11:42:26;12.10;;;4.38;;
44774;SDS011;31340;51.402;0.016;2022-07-26T11:44:53;7.75;;;3.60;;
44774;SDS011;31340;51.402;0.016;2022-07-26T11:47:21;8.32;;;3.53;;
44774;SDS011;31340;51.402;0.016;2022-07-26T11:49:52;7.97;;;3.25;;
44774;SDS011;31340;51.402;0.016;2022-07-26T11:52:40;7.18;;;3.58;;
44774;SDS011;31340;51.402;0.016;2022-07-26T11:55:07;6.65;;;3.70;;
44774;SDS011;31340;51.402;0.016;2022-07-26T11:57:35;9.05;;;3.95;;
44774;SDS011;31340;51.402;0.016;2022-07-26T12:00:03;9.27;;;3.47;;
44774;SDS011;31340;51.402;0.016;2022-07-26T12:02:38;9.65;;;4.63;;
44774;SDS011;31340;51.402;0.016;2022-07-26T12:07:51;10.57;;;4.72;;
44774;SDS011;31340;51.402;0.016;2022-07-26T12:10:26;9.23;;;4.07;;
44774;SDS011;31340;51.402;0.016;2022-07-26T12:13:07;12.57;;;4.13;;
44774;SDS011;31340;51.402;0.016;2022-07-26T12:15:43;11.95;;;4.47;;
44774;SDS011;31340;51.402;0.016;2022-07-26T12:18:20;8.18;;;3.60;;
44774;SDS011;31340;51.402;0.016;2022-07-26T12:23:41;11.98;;;3.78;;
44774;SDS011;31340;51.402;0.016;2022-07-26T12:26:21;11.50;;;3.70;;
44774;SDS011;31340;51.402;0.016;2022-07-26T12:28:49;7.80;;;4.05;;
44774;SDS011;31340;51.402;0.016;2022-07-26T12:31:21;10.07;;;4.22;;
44774;SDS011;31340;51.402;0.016;2022-07-26T12:33:58;7.68;;;3.28;;
44774;SDS011;31340;51.402;0.016;2022-07-26T12:36:26;10.18;;;3.15;;
44774;SDS011;31340;51.402;0.016;2022-07-26T12:38:56;7.32;;;2.83;;
44774;SDS011;31340;51.402;0.016;2022-07-26T12:41:29;5.63;;;2.90;;
44774;SDS011;31340;51.402;0.016;2022-07-26T12:44:02;6.13;;;2.72;;
44774;SDS011;31340;51.402;0.016;2022-07-26T12:46:31;5.93;;;2.70;;
44774;SDS011;31340;51.402;0.016;2022-07-26T12:49:03;8.73;;;2.88;;
44774;SDS011;31340;51.402;0.016;2022-07-26T12:51:31;4.20;;;2.55;;
44774;SDS011;31340;51.402;0.016;2022-07-26T12:53:59;9.07;;;2.85;;
44774;SDS011;31340;51.402;0.016;2022-07-26T12:56:27;9.48;;;2.80;;
44774;SDS011;31340;51.402;0.016;2022-07-26T12:58:55;6.60;;;2.75;;
44774;SDS011;31340;51.402;0.016;2022-07-26T13:01:27;7.15;;;3.00;;
44774;SDS011;31340;51.402;0.016;2022-07-26T13:03:55;5.85;;;2.50;;
44774;SDS011;31340;51.402;0.016;2022-07-26T13:06:23;10.38;;;3.38;;
44774;SDS011;31340;51.402;0.016;2022-07-26T13:08:51;8.55;;;3.05;;
44774;SDS011;31340;51.402;0.016;2022-07-26T13:11:18;10.02;;;3.15;;
44774;SDS011;31340;51.402;0.016;2022-07-26T13:13:46;7.35;;;3.28;;
44774;SDS011;31340;51.402;0.016;2022-07-26T13:16:13;8.23;;;2.92;;
44774;SDS011;31340;51.402;0.016;2022-07-26T13:18:40;7.97;;;3.40;;
44774;SDS011;31340;51.402;0.016;2022-07-26T13:21:09;8.20;;;2.75;;
44774;SDS011;31340;51.402;0.016;2022-07-26T13:23:37;7.32;;;3.50;;
44774;SDS011;31340;51.402;0.016;2022-07-26T13:26:04;6.97;;;2.92;;
44774;SDS011;31340;51.402;0.016;2022-07-26T13:28:35;7.75;;;3.28;;
44774;SDS011;31340;51.402;0.016;2022-07-26T13:31:03;9.52;;;2.75;;
44774;SDS011;31340;51.402;0.016;2022-07-26T13:33:31;11.18;;;3.42;;
44774;SDS011;31340;51.402;0.016;2022-07-26T13:35:59;7.30;;;2.97;;
44774;SDS011;31340;51.402;0.016;2022-07-26T13:38:26;6.78;;;2.80;;
44774;SDS011;31340;51.402;0.016;2022-07-26T13:40:54;8.73;;;2.97;;
44774;SDS011;31340;51.402;0.016;2022-07-26T13:43:23;10.32;;;4.13;;
44774;SDS011;31340;51.402;0.016;2022-07-26T13:45:50;12.45;;;3.80;;
44774;SDS011;31340;51.402;0.016;2022-07-26T13:48:18;7.70;;;3.40;;
44774;SDS011;31340;51.402;0.016;2022-07-26T13:50:46;8.60;;;3.92;;
44774;SDS011;31340;51.402;0.016;2022-07-26T13:53:13;10.23;;;3.40;;
44774;SDS011;31340;51.402;0.016;2022-07-26T13:55:41;6.15;;;3.17;;
44774;SDS011;31340;51.402;0.016;2022-07-26T13:58:09;8.05;;;3.65;;
44774;SDS011;31340;51.402;0.016;2022-07-26T14:00:36;7.32;;;3.33;;
44774;SDS011;31340;51.402;0.016;2022-07-26T14:03:06;10.73;;;3.75;;
44774;SDS011;31340;51.402;0.016;2022-07-26T14:05:34;11.43;;;3.97;;
44774;SDS011;31340;51.402;0.016;2022-07-26T14:08:01;9.63;;;3.40;;
44774;SDS011;31340;51.402;0.016;2022-07-26T14:10:29;9.55;;;3.47;;
44774;SDS011;31340;51.402;0.016;2022-07-26T14:12:57;10.95;;;4.07;;
44774;SDS011;31340;51.402;0.016;2022-07-26T14:15:24;11.70;;;3.30;;
44774;SDS011;31340;51.402;0.016;2022-07-26T14:17:52;11.95;;;3.63;;
44774;SDS011;31340;51.402;0.016;2022-07-26T14:20:19;8.65;;;3.42;;
44774;SDS011;31340;51.402;0.016;2022-07-26T14:22:47;8.68;;;3.35;;
44774;SDS011;31340;51.402;0.016;2022-07-26T14:25:20;13.32;;;3.30;;
44774;SDS011;31340;51.402;0.016;2022-07-26T14:27:51;6.70;;;3.03;;
44774;SDS011;31340;51.402;0.016;2022-07-26T14:30:21;12.88;;;3.63;;
44774;SDS011;31340;51.402;0.016;2022-07-26T14:32:49;7.90;;;3.10;;
44774;SDS011;31340;51.402;0.016;2022-07-26T14:35:17;10.02;;;3.35;;
44774;SDS011;31340;51.402;0.016;2022-07-26T14:37:44;10.52;;;3.42;;
44774;SDS011;31340;51.402;0.016;2022-07-26T14:40:13;10.57;;;2.90;;
44774;SDS011;31340;51.402;0.016;2022-07-26T14:45:11;10.60;;;3.33;;
44774;SDS011;31340;51.402;0.016;2022-07-26T14:47:40;8.73;;;3.38;;
44774;SDS011;31340;51.402;0.016;2022-07-26T14:50:08;8.85;;;2.88;;
44774;SDS011;31340;51.402;0.016;2022-07-26T14:52:38;8.63;;;2.75;;
44774;SDS011;31340;51.402;0.016;2022-07-26T14:55:06;11.20;;;2.85;;
44774;SDS011;31340;51.402;0.016;2022-07-26T14:57:35;9.43;;;2.90;;
44774;SDS011;31340;51.402;0.016;2022-07-26T15:00:07;14.48;;;2.90;;
44774;SDS011;31340;51.402;0.016;2022-07-26T15:02:37;9.52;;;2.70;;
44774;SDS011;31340;51.402;0.016;2022-07-26T15:05:10;6.75;;;2.63;;
44774;SDS011;31340;51.402;0.016;2022-07-26T15:07:40;8.13;;;3.10;;
44774;SDS011;31340;51.402;0.016;2022-07-26T15:10:09;9.50;;;2.88;;
44774;SDS011;31340;51.402;0.016;2022-07-26T15:12:38;7.72;;;2.55;;
44774;SDS011;31340;51.402;0.016;2022-07-26T15:15:06;8.75;;;2.47;;
44774;SDS011;31340;51.402;0.016;2022-07-26T15:17:35;7.43;;;2.53;;
44774;SDS011;31340;51.402;0.016;2022-07-26T15:20:03;5.75;;;2.88;;
44774;SDS011;31340;51.402;0.016;2022-07-26T15:22:31;5.40;;;2.25;;
44774;SDS011;31340;51.402;0.016;2022-07-26T15:24:59;7.32;;;2.05;;
44774;SDS011;31340;51.402;0.016;2022-07-26T15:27:26;3.95;;;1.85;;
44774;SDS011;31340;51.402;0.016;2022-07-26T15:29:55;8.52;;;2.05;;
44774;SDS011;31340;51.402;0.016;2022-07-26T15:32:30;7.55;;;2.20;;
44774;SDS011;31340;51.402;0.016;2022-07-26T15:34:58;4.22;;;2.30;;
44774;SDS011;31340;51.402;0.016;2022-07-26T15:37:26;9.45;;;3.05;;
44774;SDS011;31340;51.402;0.016;2022-07-26T15:39:53;15.73;;;4.38;;